createdAt,value
2018-10-07T00:00:18.951Z,73.80
2018-10-07T00:02:50.699Z,73.80
2018-10-07T00:05:22.665Z,73.70
2018-10-07T00:07:55.401Z,73.70
2018-10-07T00:10:27.173Z,73.70
2018-10-07T00:12:58.893Z,73.60
2018-10-07T00:15:30.745Z,73.60
2018-10-07T00:18:02.701Z,73.70
2018-10-07T00:20:34.507Z,73.70
2018-10-07T00:23:06.400Z,74.00
2018-10-07T00:25:38.870Z,73.50
2018-10-07T00:28:10.539Z,73.30
2018-10-07T00:30:42.026Z,73.30
2018-10-07T00:33:13.655Z,73.60
2018-10-07T00:35:45.592Z,73.30
2018-10-07T00:38:17.150Z,73.40
2018-10-07T00:40:49.780Z,73.20
2018-10-07T00:43:21.405Z,73.30
2018-10-07T00:45:53.305Z,73.40
2018-10-07T00:48:25.596Z,73.10
2018-10-07T00:50:57.287Z,73.10
2018-10-07T00:53:28.901Z,73.10
2018-10-07T00:56:00.830Z,73.20
2018-10-07T00:58:32.559Z,73.10
2018-10-07T01:01:04.159Z,72.70
2018-10-07T01:03:35.787Z,73.00
2018-10-07T01:06:07.741Z,72.90
2018-10-07T01:08:40.355Z,73.00
2018-10-07T01:11:12.240Z,72.90
2018-10-07T01:13:43.971Z,73.00
2018-10-07T01:16:16.693Z,72.80
2018-10-07T01:18:48.319Z,72.80
2018-10-07T01:21:20.329Z,72.80
2018-10-07T01:23:52.113Z,72.90
2018-10-07T01:26:23.648Z,72.90
2018-10-07T01:28:55.459Z,72.80
2018-10-07T01:31:27.255Z,72.80
2018-10-07T01:33:59.679Z,72.70
2018-10-07T01:36:31.548Z,72.80
2018-10-07T01:39:03.427Z,72.70
2018-10-07T01:41:35.481Z,72.80
2018-10-07T01:44:07.339Z,72.60
2018-10-07T01:46:39.030Z,72.80
2018-10-07T01:49:10.829Z,72.70
2018-10-07T01:51:42.611Z,72.60
2018-10-07T01:54:14.305Z,72.80
2018-10-07T01:56:46.133Z,72.60
2018-10-07T01:59:17.927Z,72.80
2018-10-07T02:01:49.763Z,72.80
2018-10-07T02:04:21.372Z,72.70
2018-10-07T02:06:53.273Z,72.70
2018-10-07T02:09:25.178Z,72.80
2018-10-07T02:11:57.161Z,72.90
2018-10-07T02:14:28.851Z,72.80
2018-10-07T02:17:00.767Z,72.70
2018-10-07T02:19:32.387Z,72.70
2018-10-07T02:22:04.145Z,72.90
2018-10-07T02:24:35.731Z,72.50
2018-10-07T02:27:07.307Z,72.50
2018-10-07T02:29:38.989Z,72.70
2018-10-07T02:32:10.651Z,72.70
2018-10-07T02:34:42.340Z,72.70
2018-10-07T02:37:14.053Z,72.60
2018-10-07T02:39:45.806Z,72.60
2018-10-07T02:42:18.081Z,72.60
2018-10-07T02:44:50.127Z,72.50
2018-10-07T02:47:22.785Z,72.80
2018-10-07T02:49:54.434Z,72.70
2018-10-07T02:52:31.303Z,72.60
2018-10-07T02:55:03.178Z,72.60
2018-10-07T02:57:34.741Z,72.60
2018-10-07T03:00:06.534Z,73.50
2018-10-07T03:02:38.212Z,72.70
2018-10-07T03:05:09.856Z,72.70
2018-10-07T03:07:42.220Z,72.70
2018-10-07T03:10:14.004Z,72.60
2018-10-07T03:12:45.661Z,72.50
2018-10-07T03:15:17.367Z,72.60
2018-10-07T03:17:49.003Z,72.60
2018-10-07T03:20:20.700Z,72.50
2018-10-07T03:22:53.021Z,72.50
2018-10-07T03:25:24.710Z,72.30
2018-10-07T03:27:56.423Z,72.30
2018-10-07T03:30:28.310Z,72.30
2018-10-07T03:33:01.024Z,72.30
2018-10-07T03:35:32.633Z,72.20
2018-10-07T03:38:04.262Z,72.20
2018-10-07T03:40:36.180Z,72.10
2018-10-07T03:43:07.694Z,71.90
2018-10-07T03:45:39.390Z,72.60
2018-10-07T03:48:12.033Z,71.90
2018-10-07T03:50:43.589Z,72.00
2018-10-07T03:53:15.425Z,71.90
2018-10-07T03:55:46.942Z,71.80
2018-10-07T03:58:18.561Z,71.90
2018-10-07T04:00:50.881Z,72.00
2018-10-07T04:03:22.788Z,71.70
2018-10-07T04:05:54.439Z,71.80
2018-10-07T04:08:26.078Z,71.60
2018-10-07T04:10:57.917Z,71.70
2018-10-07T04:13:30.217Z,71.60
2018-10-07T04:16:01.869Z,71.40
2018-10-07T04:18:33.693Z,71.40
2018-10-07T04:21:06.508Z,71.50
2018-10-07T04:23:38.251Z,71.30
2018-10-07T04:26:09.902Z,71.30
2018-10-07T04:28:41.943Z,71.10
2018-10-07T04:31:13.781Z,71.10
2018-10-07T04:33:45.497Z,71.10
2018-10-07T04:36:17.203Z,70.90
2018-10-07T04:38:48.853Z,70.80
2018-10-07T04:41:20.517Z,71.10
2018-10-07T04:43:52.123Z,70.90
2018-10-07T04:46:23.941Z,71.10
2018-10-07T04:48:55.503Z,70.90
2018-10-07T04:51:27.190Z,71.00
2018-10-07T04:53:58.831Z,70.90
2018-10-07T04:56:30.516Z,70.70
2018-10-07T04:59:03.160Z,70.80
2018-10-07T05:01:35.722Z,70.80
2018-10-07T05:04:07.496Z,70.80
2018-10-07T05:06:39.475Z,70.80
2018-10-07T05:09:12.208Z,70.70
2018-10-07T05:11:44.748Z,70.50
2018-10-07T05:14:16.859Z,70.50
2018-10-07T05:16:49.265Z,70.50
2018-10-07T05:19:21.315Z,70.40
2018-10-07T05:21:53.025Z,70.50
2018-10-07T05:24:24.881Z,70.30
2018-10-07T05:26:56.491Z,70.50
2018-10-07T05:29:28.249Z,70.40
2018-10-07T05:32:00.847Z,70.20
2018-10-07T05:34:32.441Z,70.20
2018-10-07T05:37:04.129Z,70.40
2018-10-07T05:39:35.785Z,70.40
2018-10-07T05:42:07.462Z,70.30
2018-10-07T05:44:39.257Z,70.30
2018-10-07T05:47:11.866Z,70.20
2018-10-07T05:49:43.465Z,70.30
2018-10-07T05:52:15.162Z,70.30
2018-10-07T05:54:46.922Z,70.30
2018-10-07T05:57:18.840Z,70.30
2018-10-07T05:59:51.492Z,70.30
2018-10-07T06:02:24.899Z,70.30
2018-10-07T06:04:58.583Z,70.30
2018-10-07T06:07:32.790Z,70.30
2018-10-07T06:10:05.711Z,70.20
2018-10-07T06:12:37.494Z,70.20
2018-10-07T06:15:46.714Z,70.40
2018-10-07T06:18:19.266Z,70.30
2018-10-07T06:20:51.028Z,70.40
2018-10-07T06:23:22.828Z,70.40
2018-10-07T06:25:55.272Z,70.40
2018-10-07T06:28:26.673Z,70.40
2018-10-07T06:30:58.635Z,70.50
2018-10-07T06:33:30.380Z,70.70
2018-10-07T06:36:02.228Z,70.50
2018-10-07T06:38:34.012Z,70.50
2018-10-07T06:41:05.884Z,70.40
2018-10-07T06:43:38.588Z,70.50
2018-10-07T06:46:10.322Z,70.80
2018-10-07T06:48:42.161Z,70.60
2018-10-07T06:51:13.848Z,70.80
2018-10-07T06:53:45.747Z,70.70
2018-10-07T06:56:17.561Z,70.70
2018-10-07T06:58:49.389Z,70.70
2018-10-07T07:01:21.104Z,70.80
2018-10-07T07:03:53.233Z,70.70
2018-10-07T07:06:25.055Z,70.70
2018-10-07T07:08:57.095Z,70.90
2018-10-07T07:11:28.797Z,71.10
2018-10-07T07:14:00.644Z,71.10
2018-10-07T07:16:32.398Z,71.20
2018-10-07T07:19:05.094Z,71.10
2018-10-07T07:21:36.906Z,71.20
2018-10-07T07:24:08.794Z,71.30
2018-10-07T07:26:40.605Z,71.20
2018-10-07T07:29:12.317Z,71.40
2018-10-07T07:31:43.919Z,71.30
2018-10-07T07:34:15.596Z,71.40
2018-10-07T07:36:47.325Z,71.50
2018-10-07T07:39:19.196Z,71.70
2018-10-07T07:41:50.879Z,71.80
2018-10-07T07:44:22.521Z,71.70
2018-10-07T07:46:54.524Z,71.50
2018-10-07T07:49:27.189Z,71.50
2018-10-07T07:51:59.181Z,71.80
2018-10-07T07:54:31.008Z,71.70
2018-10-07T07:57:02.745Z,71.70
2018-10-07T07:59:34.595Z,71.70
2018-10-07T08:02:06.499Z,71.50
2018-10-07T08:04:39.779Z,71.70
2018-10-07T08:07:12.423Z,71.80
2018-10-07T08:09:44.472Z,71.70
2018-10-07T08:12:16.422Z,71.70
2018-10-07T08:14:48.418Z,71.80
2018-10-07T08:17:20.502Z,71.80
2018-10-07T08:19:52.807Z,72.10
2018-10-07T08:22:25.025Z,72.80
2018-10-07T08:24:56.807Z,72.20
2018-10-07T08:27:31.053Z,72.30
2018-10-07T08:30:03.346Z,72.20
2018-10-07T08:32:35.245Z,72.20
2018-10-07T08:35:06.836Z,72.10
2018-10-07T08:37:38.812Z,72.30
2018-10-07T08:40:10.761Z,72.30
2018-10-07T08:42:43.507Z,72.70
2018-10-07T08:45:15.847Z,72.70
2018-10-07T08:47:47.527Z,72.30
2018-10-07T08:50:19.253Z,72.60
2018-10-07T08:52:50.946Z,72.70
2018-10-07T08:55:22.620Z,72.70
2018-10-07T08:57:54.280Z,72.60
2018-10-07T09:00:26.067Z,72.60
2018-10-07T09:02:57.896Z,72.60
2018-10-07T09:05:29.601Z,72.60
2018-10-07T09:08:02.062Z,72.50
2018-10-07T09:10:33.958Z,72.50
2018-10-07T09:13:05.749Z,72.60
2018-10-07T09:15:37.741Z,72.30
2018-10-07T09:18:09.439Z,72.50
2018-10-07T09:20:41.781Z,72.30
2018-10-07T09:23:13.480Z,70.80
2018-10-07T09:25:45.363Z,70.10
2018-10-07T09:28:17.697Z,71.10
2018-10-07T09:30:49.635Z,71.40
2018-10-07T09:33:21.275Z,71.50
2018-10-07T09:35:53.421Z,71.50
2018-10-07T09:38:25.923Z,71.50
2018-10-07T09:40:57.592Z,71.50
2018-10-07T09:43:29.272Z,71.10
2018-10-07T09:46:01.092Z,71.30
2018-10-07T09:48:33.169Z,71.90
2018-10-07T09:51:05.149Z,71.10
2018-10-07T09:53:37.493Z,71.20
2018-10-07T09:56:09.343Z,71.20
2018-10-07T09:58:41.180Z,71.20
2018-10-07T10:01:12.954Z,71.20
2018-10-07T10:03:44.921Z,71.20
2018-10-07T10:06:16.899Z,71.10
2018-10-07T10:11:47.979Z,71.00
2018-10-07T10:14:19.752Z,71.00
2018-10-07T10:17:01.917Z,71.00
2018-10-07T10:19:42.266Z,71.00
2018-10-07T10:22:38.640Z,70.90
2018-10-07T10:26:17.767Z,70.90
2018-10-07T10:28:58.743Z,71.00
2018-10-07T10:33:10.315Z,70.80
2018-10-07T10:36:06.113Z,71.00
2018-10-07T10:38:49.768Z,70.80
2018-10-07T10:41:29.876Z,70.90
2018-10-07T10:44:04.462Z,70.90
2018-10-07T10:46:44.351Z,70.90
2018-10-07T10:49:23.405Z,70.90
2018-10-07T10:52:15.687Z,70.80
2018-10-07T10:54:57.095Z,70.80
2018-10-07T10:57:40.103Z,70.80
2018-10-07T11:00:16.778Z,70.80
2018-10-07T11:03:12.901Z,70.90
2018-10-07T11:05:51.126Z,70.80
2018-10-07T11:08:38.155Z,70.80
2018-10-07T11:11:28.634Z,70.70
2018-10-07T11:14:13.817Z,70.60
2018-10-07T11:16:58.203Z,70.60
2018-10-07T11:21:47.164Z,70.70
2018-10-07T11:24:25.879Z,70.60
2018-10-07T11:27:06.527Z,70.40
2018-10-07T11:30:22.482Z,71.10
2018-10-07T11:34:03.110Z,70.20
2018-10-07T11:37:11.724Z,70.30
2018-10-07T11:44:12.755Z,70.20
2018-10-07T11:49:09.296Z,70.10
2018-10-07T11:51:51.201Z,70.10
2018-10-07T11:55:01.766Z,70.10
2018-10-07T11:57:33.580Z,70.00
2018-10-07T12:00:06.004Z,70.00
2018-10-07T12:02:38.104Z,70.00
2018-10-07T12:05:10.261Z,70.10
2018-10-07T12:07:42.224Z,70.10
2018-10-07T12:10:13.842Z,69.60
2018-10-07T12:12:45.770Z,69.70
2018-10-07T12:15:17.628Z,69.40
2018-10-07T12:17:49.358Z,69.40
2018-10-07T12:20:21.308Z,69.30
2018-10-07T12:22:53.085Z,69.40
2018-10-07T12:25:24.869Z,69.40
2018-10-07T12:27:56.638Z,69.30
2018-10-07T12:30:28.232Z,70.10
2018-10-07T12:33:01.012Z,69.20
2018-10-07T12:35:32.668Z,69.20
2018-10-07T12:38:12.515Z,69.50
2018-10-07T12:40:45.146Z,69.60
2018-10-07T12:43:17.173Z,69.40
2018-10-07T12:45:48.870Z,69.40
2018-10-07T12:48:20.814Z,69.60
2018-10-07T12:50:52.815Z,69.50
2018-10-07T12:53:24.643Z,69.50
2018-10-07T12:55:56.404Z,69.50
2018-10-07T12:58:29.816Z,69.40
2018-10-07T13:01:01.742Z,69.30
2018-10-07T13:03:33.656Z,69.50
2018-10-07T13:06:05.339Z,69.20
2018-10-07T13:08:38.752Z,69.30
2018-10-07T13:11:11.532Z,65.10
2018-10-07T13:13:43.520Z,64.40
2018-10-07T13:16:15.379Z,63.30
2018-10-07T13:18:46.920Z,63.60
2018-10-07T13:21:18.845Z,66.50
2018-10-07T13:23:50.583Z,67.00
2018-10-07T13:26:22.506Z,67.30
2018-10-07T13:28:54.501Z,67.60
2018-10-07T13:31:26.481Z,67.30
2018-10-07T13:33:58.361Z,67.40
2018-10-07T13:36:30.495Z,67.80
2018-10-07T13:39:02.209Z,67.70
2018-10-07T13:41:34.442Z,67.50
2018-10-07T13:44:06.057Z,67.80
2018-10-07T13:46:37.957Z,67.80
2018-10-07T13:49:09.702Z,67.80
2018-10-07T13:51:41.626Z,68.10
2018-10-07T13:54:14.236Z,68.30
2018-10-07T13:56:45.914Z,68.30
2018-10-07T13:59:17.645Z,68.60
2018-10-07T14:01:49.511Z,68.50
2018-10-07T14:04:22.204Z,68.50
2018-10-07T14:06:54.099Z,68.60
2018-10-07T14:09:26.130Z,68.40
2018-10-07T14:11:57.770Z,68.70
2018-10-07T14:14:29.634Z,68.70
2018-10-07T14:17:02.342Z,68.50
2018-10-07T14:19:34.257Z,68.50
2018-10-07T14:22:05.927Z,68.80
2018-10-07T14:24:37.861Z,68.90
2018-10-07T14:27:09.540Z,68.90
2018-10-07T14:29:56.282Z,68.30
2018-10-07T14:32:27.887Z,68.80
2018-10-07T14:34:59.789Z,68.50
2018-10-07T14:37:31.349Z,69.10
2018-10-07T14:40:03.987Z,68.90
2018-10-07T14:42:35.869Z,69.00
2018-10-07T14:45:07.691Z,68.70
2018-10-07T14:47:39.692Z,68.70
2018-10-07T14:50:16.263Z,68.50
2018-10-07T14:52:48.717Z,68.70
2018-10-07T14:55:20.954Z,68.70
2018-10-07T14:57:52.985Z,68.20
2018-10-07T15:00:26.096Z,68.50
2018-10-07T15:02:59.425Z,68.30
2018-10-07T15:05:31.706Z,68.20
2018-10-07T15:08:03.338Z,68.10
2018-10-07T15:10:35.249Z,68.00
2018-10-07T15:13:07.235Z,67.50
2018-10-07T15:15:39.192Z,68.10
2018-10-07T15:18:11.050Z,67.80
2018-10-07T15:20:43.133Z,67.60
2018-10-07T15:23:14.672Z,68.30
2018-10-07T15:25:46.608Z,67.50
2018-10-07T15:28:18.466Z,67.70
2018-10-07T15:30:50.713Z,67.60
2018-10-07T15:33:22.873Z,67.50
2018-10-07T15:35:55.156Z,67.70
2018-10-07T15:38:27.068Z,68.00
2018-10-07T15:40:59.057Z,68.10
2018-10-07T15:43:30.758Z,68.10
2018-10-07T15:46:02.653Z,68.20
2018-10-07T15:48:34.701Z,68.20
2018-10-07T15:51:06.528Z,68.20
2018-10-07T15:53:38.511Z,68.40
2018-10-07T15:56:10.245Z,68.20
2018-10-07T15:58:42.036Z,68.10
2018-10-07T16:01:13.723Z,68.20
2018-10-07T16:03:45.458Z,68.30
2018-10-07T16:06:17.317Z,68.30
2018-10-07T16:08:49.084Z,68.10
2018-10-07T16:11:21.175Z,68.20
2018-10-07T16:13:53.568Z,68.20
2018-10-07T16:16:25.363Z,68.30
2018-10-07T16:18:57.233Z,68.20
2018-10-07T16:21:28.988Z,68.20
2018-10-07T16:24:01.013Z,68.70
2018-10-07T16:26:32.859Z,68.20
2018-10-07T16:29:04.585Z,68.10
2018-10-07T16:31:36.240Z,68.00
2018-10-07T16:34:08.375Z,68.00
2018-10-07T16:36:40.043Z,67.80
2018-10-07T16:39:12.266Z,67.90
2018-10-07T16:41:44.327Z,67.90
2018-10-07T16:44:16.087Z,67.90
2018-10-07T16:46:47.701Z,67.80
2018-10-07T16:49:19.337Z,67.70
2018-10-07T16:51:51.186Z,67.70
2018-10-07T16:54:23.201Z,67.90
2018-10-07T16:56:55.817Z,67.70
2018-10-07T16:59:27.891Z,67.80
2018-10-07T17:01:59.598Z,67.70
2018-10-07T17:04:31.495Z,67.70
2018-10-07T17:07:03.153Z,67.70
2018-10-07T17:09:34.952Z,67.70
2018-10-07T17:12:06.738Z,67.50
2018-10-07T17:14:38.482Z,67.60
2018-10-07T17:17:10.415Z,67.50
2018-10-07T17:19:42.469Z,67.50
2018-10-07T17:22:14.249Z,67.40
2018-10-07T17:24:46.411Z,67.40
2018-10-07T17:27:18.585Z,67.30
2018-10-07T17:29:50.490Z,67.20
2018-10-07T17:32:22.397Z,67.20
2018-10-07T17:34:54.005Z,66.90
2018-10-07T17:37:25.731Z,67.00
2018-10-07T17:39:57.588Z,67.10
2018-10-07T17:42:29.571Z,66.80
2018-10-07T17:45:01.499Z,67.10
2018-10-07T17:47:33.482Z,66.90
2018-10-07T17:50:05.884Z,66.80
2018-10-07T17:52:37.565Z,66.80
2018-10-07T17:55:09.392Z,66.60
2018-10-07T17:57:42.120Z,66.70
2018-10-07T18:00:15.403Z,66.80
2018-10-07T18:02:47.216Z,66.80
2018-10-07T18:05:19.410Z,66.60
2018-10-07T18:07:54.018Z,66.90
2018-10-07T18:10:25.888Z,66.70
2018-10-07T18:12:58.252Z,66.70
2018-10-07T18:15:29.933Z,66.60
2018-10-07T18:18:01.640Z,66.70
2018-10-07T18:20:34.256Z,67.10
2018-10-07T18:23:05.877Z,66.50
2018-10-07T18:25:37.895Z,66.50
2018-10-07T18:28:10.551Z,66.60
2018-10-07T18:30:42.926Z,66.60
2018-10-07T18:33:15.485Z,66.50
2018-10-07T18:35:47.102Z,66.60
2018-10-07T18:38:18.947Z,66.60
2018-10-07T18:40:51.196Z,66.60
2018-10-07T18:43:22.932Z,66.90
2018-10-07T18:45:54.826Z,66.40
2018-10-07T18:48:26.537Z,66.50
2018-10-07T18:50:58.429Z,66.20
2018-10-07T18:53:30.323Z,66.60
2018-10-07T18:56:02.022Z,66.30
2018-10-07T18:58:33.859Z,66.30
2018-10-07T19:01:05.908Z,66.30
2018-10-07T19:03:38.115Z,66.30
2018-10-07T19:06:10.728Z,66.00
2018-10-07T19:08:42.396Z,65.90
2018-10-07T19:11:14.247Z,66.00
2018-10-07T19:14:49.369Z,66.90
2018-10-07T19:17:21.132Z,65.80
2018-10-07T19:19:52.962Z,66.00
2018-10-07T19:22:24.671Z,66.00
2018-10-07T19:24:56.566Z,65.90
2018-10-07T19:27:28.190Z,66.60
2018-10-07T19:30:00.050Z,65.80
2018-10-07T19:32:31.986Z,65.70
2018-10-07T19:35:03.771Z,65.60
2018-10-07T19:37:35.669Z,65.80
2018-10-07T19:40:08.157Z,65.80
2018-10-07T19:42:39.814Z,65.60
2018-10-07T19:45:11.772Z,65.40
2018-10-07T19:47:43.473Z,65.60
2018-10-07T19:50:15.426Z,65.70
2018-10-07T19:52:47.434Z,65.40
2018-10-07T19:55:19.429Z,65.60
2018-10-07T19:57:52.825Z,65.60
2018-10-07T20:00:24.970Z,65.60
2018-10-07T20:02:56.844Z,65.50
2018-10-07T20:05:28.692Z,65.30
2018-10-07T20:08:00.799Z,65.80
2018-10-07T20:10:32.312Z,65.70
2018-10-07T20:13:04.045Z,65.50
2018-10-07T20:15:35.788Z,65.60
2018-10-07T20:18:08.456Z,65.40
2018-10-07T20:20:41.200Z,65.30
2018-10-07T20:23:12.776Z,65.40
2018-10-07T20:25:44.517Z,65.50
2018-10-07T20:28:16.413Z,65.50
2018-10-07T20:30:48.056Z,65.70
2018-10-07T20:33:19.741Z,65.80
2018-10-07T20:35:51.386Z,65.60
2018-10-07T20:38:23.266Z,65.50
2018-10-07T20:40:54.985Z,65.50
2018-10-07T20:43:26.853Z,65.60
2018-10-07T20:45:58.561Z,65.80
2018-10-07T20:48:33.552Z,65.70
2018-10-07T20:51:05.360Z,65.70
2018-10-07T20:53:37.914Z,65.90
2018-10-07T20:56:09.692Z,65.80
2018-10-07T20:58:41.388Z,65.90
2018-10-07T21:01:13.038Z,65.70
2018-10-07T21:03:44.829Z,65.90
2018-10-07T21:06:16.516Z,66.10
2018-10-07T21:08:48.281Z,65.90
2018-10-07T21:11:19.814Z,66.00
2018-10-07T21:13:51.895Z,66.00
2018-10-07T21:16:23.913Z,66.60
2018-10-07T21:18:56.569Z,66.00
2018-10-07T21:21:28.277Z,65.90
2018-10-07T21:24:00.064Z,65.90
2018-10-07T21:26:32.081Z,66.00
2018-10-07T21:29:03.823Z,66.20
2018-10-07T21:31:35.748Z,66.10
2018-10-07T21:34:07.683Z,66.00
2018-10-07T21:36:39.557Z,66.00
2018-10-07T21:39:11.927Z,65.80
2018-10-07T21:41:43.843Z,65.90
2018-10-07T21:44:15.715Z,65.70
2018-10-07T21:46:47.844Z,65.90
2018-10-07T21:49:19.535Z,66.00
2018-10-07T21:51:51.378Z,65.90
2018-10-07T21:54:23.142Z,66.00
2018-10-07T21:56:55.237Z,65.90
2018-10-07T21:59:26.957Z,65.80
2018-10-07T22:01:58.825Z,65.90
2018-10-07T22:04:30.856Z,65.90
2018-10-07T22:07:02.904Z,66.00
2018-10-07T22:09:34.615Z,65.90
2018-10-07T22:12:06.582Z,65.90
2018-10-07T22:14:38.335Z,66.00
2018-10-07T22:17:10.431Z,66.10
2018-10-07T22:19:42.173Z,66.00
2018-10-07T22:22:14.294Z,66.00
2018-10-07T22:24:46.004Z,65.90
2018-10-07T22:27:17.957Z,66.10
2018-10-07T22:29:50.001Z,66.00
2018-10-07T22:32:21.631Z,65.90
2018-10-07T22:34:53.669Z,65.90
2018-10-07T22:37:25.367Z,65.90
2018-10-07T22:39:57.063Z,66.00
2018-10-07T22:42:28.721Z,66.00
2018-10-07T22:45:00.666Z,66.10
2018-10-07T22:47:32.369Z,66.10
2018-10-07T22:50:04.187Z,66.30
2018-10-07T22:52:36.043Z,66.10
2018-10-07T22:55:07.844Z,66.20
2018-10-07T22:57:39.545Z,66.20
2018-10-07T23:00:12.172Z,66.20
2018-10-07T23:02:44.420Z,66.50
2018-10-07T23:05:16.238Z,66.50
2018-10-07T23:07:48.429Z,66.40
2018-10-07T23:10:20.362Z,66.40
2018-10-07T23:12:52.085Z,66.40
2018-10-07T23:15:23.879Z,66.30
2018-10-07T23:17:56.456Z,66.40
2018-10-07T23:20:28.517Z,66.70
2018-10-07T23:23:00.366Z,66.50
2018-10-07T23:25:33.014Z,66.50
2018-10-07T23:28:04.576Z,66.70
2018-10-07T23:30:36.531Z,66.70
2018-10-07T23:33:08.486Z,66.50
2018-10-07T23:35:40.102Z,66.70
2018-10-07T23:38:11.953Z,66.50
2018-10-07T23:40:45.313Z,66.50
2018-10-07T23:43:17.242Z,66.80
2018-10-07T23:45:48.978Z,66.90
2018-10-07T23:48:20.972Z,66.80
2018-10-07T23:50:52.928Z,66.60
2018-10-07T23:53:24.644Z,66.60
2018-10-07T23:55:56.368Z,66.60
2018-10-07T23:58:28.171Z,66.70
